createdAt,value
2023-05-25T00:03:20.619Z,24.63
2023-05-25T00:13:29.731Z,25.30
2023-05-25T00:23:35.763Z,27.35
2023-05-25T00:33:40.793Z,28.45
2023-05-25T00:43:47.286Z,30.10
2023-05-25T00:53:52.060Z,32.53
2023-05-25T01:03:58.028Z,33.70
2023-05-25T01:14:08.702Z,33.35
2023-05-25T01:24:33.573Z,41.00
2023-05-25T01:34:40.909Z,39.50
2023-05-25T01:44:43.630Z,44.95
2023-05-25T01:55:01.174Z,48.78
2023-05-25T02:05:07.319Z,45.72
2023-05-25T02:15:20.876Z,43.67
2023-05-25T02:25:27.856Z,37.00
2023-05-25T02:35:30.572Z,37.28
2023-05-25T02:45:35.985Z,39.70
2023-05-25T02:55:41.663Z,34.42
2023-05-25T03:05:48.887Z,37.63
2023-05-25T03:15:52.802Z,38.00
2023-05-25T03:26:01.268Z,38.42
2023-05-25T03:36:09.373Z,33.70
2023-05-25T03:46:18.646Z,37.17
2023-05-25T03:56:21.729Z,35.50
2023-05-25T04:06:35.198Z,33.17
2023-05-25T04:16:39.985Z,30.98
2023-05-25T04:26:47.113Z,39.33
2023-05-25T04:36:53.492Z,35.30
2023-05-25T04:47:01.578Z,35.97
2023-05-25T04:57:10.637Z,32.25
2023-05-25T05:07:15.054Z,35.88
2023-05-25T05:17:20.716Z,30.50
2023-05-25T05:27:23.224Z,37.35
2023-05-25T05:37:32.258Z,46.33
2023-05-25T05:47:37.502Z,36.05
2023-05-25T05:57:42.243Z,33.00
2023-05-25T06:07:56.427Z,39.50
2023-05-25T06:18:00.512Z,27.75
2023-05-25T06:28:06.248Z,30.10
2023-05-25T06:38:08.653Z,29.73
2023-05-25T06:48:13.572Z,28.05
2023-05-25T06:58:21.671Z,33.40
2023-05-25T07:08:30.300Z,27.42
2023-05-25T07:18:32.787Z,30.55
2023-05-25T07:28:41.179Z,29.10
2023-05-25T07:38:50.926Z,26.92
2023-05-25T07:49:00.045Z,29.42
2023-05-25T07:59:06.067Z,27.58
2023-05-25T08:09:08.692Z,27.98
2023-05-25T08:19:11.140Z,24.52
2023-05-25T08:29:13.864Z,23.33
2023-05-25T08:39:19.238Z,25.75
2023-05-25T08:49:22.953Z,23.20
2023-05-25T09:00:01.083Z,21.40
2023-05-25T09:10:05.911Z,18.00
2023-05-25T09:20:11.530Z,23.33
2023-05-25T09:30:13.956Z,20.67
2023-05-25T09:40:18.513Z,25.20
2023-05-25T09:50:21.613Z,23.85
2023-05-25T10:00:25.133Z,23.45
2023-05-25T10:10:27.635Z,24.10
2023-05-25T10:20:35.342Z,22.15
2023-05-25T10:30:42.038Z,22.58
2023-05-25T10:40:51.625Z,24.17
2023-05-25T10:50:54.382Z,17.95
2023-05-25T11:01:12.942Z,20.80
2023-05-25T11:11:20.380Z,18.17
2023-05-25T11:21:29.236Z,21.73
2023-05-25T11:31:38.355Z,17.17
2023-05-25T11:41:51.788Z,16.45
2023-05-25T11:51:59.775Z,15.80
2023-05-25T12:02:03.447Z,14.63
2023-05-25T12:12:11.874Z,14.82
2023-05-25T12:22:17.774Z,13.10
2023-05-25T12:32:22.362Z,16.10
2023-05-25T12:42:32.550Z,14.32
2023-05-25T12:52:45.515Z,13.50
2023-05-25T13:02:50.771Z,13.20
2023-05-25T13:12:58.786Z,11.73
2023-05-25T13:23:04.338Z,13.70
2023-05-25T13:33:06.609Z,10.43
2023-05-25T13:43:08.983Z,11.85
2023-05-25T13:53:13.129Z,11.40
2023-05-25T14:03:19.216Z,12.65
2023-05-25T14:13:24.587Z,9.70
2023-05-25T14:23:28.741Z,11.43
2023-05-25T14:33:33.307Z,14.73
2023-05-25T14:43:35.954Z,12.38
2023-05-25T14:53:40.291Z,12.77
2023-05-25T15:03:45.247Z,11.57
2023-05-25T15:13:50.319Z,9.93
2023-05-25T15:23:52.672Z,9.90
2023-05-25T15:34:02.426Z,10.05
2023-05-25T15:44:09.060Z,10.32
2023-05-25T15:54:14.670Z,11.23
2023-05-25T16:04:24.237Z,10.43
2023-05-25T16:14:29.352Z,11.38
2023-05-25T16:24:36.425Z,10.65
2023-05-25T16:34:38.970Z,9.30
2023-05-25T16:44:46.007Z,10.90
2023-05-25T16:54:52.113Z,10.98
2023-05-25T17:04:55.184Z,13.43
2023-05-25T17:15:01.823Z,10.18
2023-05-25T17:25:09.258Z,10.30
2023-05-25T17:35:19.875Z,12.68
2023-05-25T17:45:24.290Z,11.75
2023-05-25T17:55:29.476Z,10.30
2023-05-25T18:05:34.414Z,9.70
2023-05-25T18:15:39.757Z,12.88
2023-05-25T18:25:46.134Z,12.43
2023-05-25T18:35:54.606Z,9.45
2023-05-25T18:46:01.908Z,11.88
2023-05-25T18:56:04.319Z,11.70
2023-05-25T19:06:08.249Z,12.38
2023-05-25T19:16:14.255Z,13.25
2023-05-25T19:26:22.030Z,10.40
2023-05-25T19:36:27.416Z,14.75
2023-05-25T19:46:30.256Z,13.77
2023-05-25T19:56:35.318Z,11.27
2023-05-25T20:06:39.757Z,17.42
2023-05-25T20:16:42.122Z,15.98
2023-05-25T20:26:44.969Z,13.07
2023-05-25T20:36:48.716Z,13.18
2023-05-25T20:46:54.190Z,13.02
2023-05-25T20:57:04.051Z,25.85
2023-05-25T21:07:08.680Z,14.32
2023-05-25T21:17:18.025Z,12.60
2023-05-25T21:27:27.006Z,11.85
2023-05-25T21:37:32.596Z,15.15
2023-05-25T21:47:43.297Z,11.57
2023-05-25T21:57:49.919Z,9.88
2023-05-25T22:07:54.265Z,11.38
2023-05-25T22:18:02.360Z,8.63
2023-05-25T22:28:04.653Z,9.45
2023-05-25T22:38:08.711Z,11.88
2023-05-25T22:48:17.305Z,16.90
2023-05-25T22:58:22.332Z,12.90
2023-05-25T23:08:27.310Z,10.82
2023-05-25T23:18:31.038Z,9.73
2023-05-25T23:28:37.611Z,9.80
2023-05-25T23:38:44.121Z,9.23
2023-05-25T23:48:47.569Z,7.03
2023-05-25T23:58:57.467Z,9.68
